sensor_id;sensor_type;location;lat;lon;timestamp;temperature;humidity
48208;DHT22;33997;53.278;9.708;2023-04-23T00:01:17;13.80;92.90
48208;DHT22;33997;53.278;9.708;2023-04-23T00:03:43;13.80;92.90
48208;DHT22;33997;53.278;9.708;2023-04-23T00:06:10;13.80;93.00
48208;DHT22;33997;53.278;9.708;2023-04-23T00:08:40;13.80;93.20
48208;DHT22;33997;53.278;9.708;2023-04-23T00:11:06;13.70;93.40
48208;DHT22;33997;53.278;9.708;2023-04-23T00:13:32;13.70;93.50
48208;DHT22;33997;53.278;9.708;2023-04-23T00:15:58;13.60;93.70
48208;DHT22;33997;53.278;9.708;2023-04-23T00:18:24;13.60;93.70
48208;DHT22;33997;53.278;9.708;2023-04-23T00:20:49;13.60;93.60
48208;DHT22;33997;53.278;9.708;2023-04-23T00:23:15;13.60;93.70
48208;DHT22;33997;53.278;9.708;2023-04-23T00:25:40;13.60;93.80
48208;DHT22;33997;53.278;9.708;2023-04-23T00:28:06;13.60;93.80
48208;DHT22;33997;53.278;9.708;2023-04-23T00:30:32;13.60;93.80
48208;DHT22;33997;53.278;9.708;2023-04-23T00:32:58;13.60;93.90
48208;DHT22;33997;53.278;9.708;2023-04-23T00:35:23;13.60;93.90
48208;DHT22;33997;53.278;9.708;2023-04-23T00:37:49;13.60;93.80
48208;DHT22;33997;53.278;9.708;2023-04-23T00:40:14;13.50;93.90
48208;DHT22;33997;53.278;9.708;2023-04-23T00:42:40;13.50;94.00
48208;DHT22;33997;53.278;9.708;2023-04-23T00:45:07;13.50;93.90
48208;DHT22;33997;53.278;9.708;2023-04-23T00:47:33;13.50;93.90
48208;DHT22;33997;53.278;9.708;2023-04-23T00:49:59;13.50;94.00
48208;DHT22;33997;53.278;9.708;2023-04-23T00:52:25;13.40;94.10
48208;DHT22;33997;53.278;9.708;2023-04-23T00:54:50;13.50;94.20
48208;DHT22;33997;53.278;9.708;2023-04-23T00:57:16;13.40;94.30
48208;DHT22;33997;53.278;9.708;2023-04-23T00:59:42;13.40;94.40
48208;DHT22;33997;53.278;9.708;2023-04-23T01:02:09;13.40;94.40
48208;DHT22;33997;53.278;9.708;2023-04-23T01:04:34;13.40;94.40
48208;DHT22;33997;53.278;9.708;2023-04-23T01:07:01;13.50;94.30
48208;DHT22;33997;53.278;9.708;2023-04-23T01:09:27;13.50;94.30
48208;DHT22;33997;53.278;9.708;2023-04-23T01:11:53;13.50;94.40
48208;DHT22;33997;53.278;9.708;2023-04-23T01:14:18;13.50;94.40
48208;DHT22;33997;53.278;9.708;2023-04-23T01:16:44;13.50;94.40
48208;DHT22;33997;53.278;9.708;2023-04-23T01:19:11;13.50;94.50
48208;DHT22;33997;53.278;9.708;2023-04-23T01:21:38;13.50;94.30
48208;DHT22;33997;53.278;9.708;2023-04-23T01:24:06;13.50;94.20
48208;DHT22;33997;53.278;9.708;2023-04-23T01:26:33;13.50;94.30
48208;DHT22;33997;53.278;9.708;2023-04-23T01:29:00;13.50;94.30
48208;DHT22;33997;53.278;9.708;2023-04-23T01:31:26;13.50;94.30
48208;DHT22;33997;53.278;9.708;2023-04-23T01:33:53;13.50;94.30
48208;DHT22;33997;53.278;9.708;2023-04-23T01:36:23;13.50;94.30
48208;DHT22;33997;53.278;9.708;2023-04-23T01:38:49;13.50;94.30
48208;DHT22;33997;53.278;9.708;2023-04-23T01:41:14;13.50;94.40
48208;DHT22;33997;53.278;9.708;2023-04-23T01:43:43;13.40;94.80
48208;DHT22;33997;53.278;9.708;2023-04-23T01:46:08;13.30;94.90
48208;DHT22;33997;53.278;9.708;2023-04-23T01:48:35;13.30;94.80
48208;DHT22;33997;53.278;9.708;2023-04-23T01:51:01;13.10;95.20
48208;DHT22;33997;53.278;9.708;2023-04-23T01:53:26;12.80;95.10
48208;DHT22;33997;53.278;9.708;2023-04-23T01:55:53;12.30;95.80
48208;DHT22;33997;53.278;9.708;2023-04-23T01:58:19;12.10;96.40
48208;DHT22;33997;53.278;9.708;2023-04-23T02:00:45;12.10;96.40
48208;DHT22;33997;53.278;9.708;2023-04-23T02:03:10;12.00;96.50
48208;DHT22;33997;53.278;9.708;2023-04-23T02:05:37;11.90;96.70
48208;DHT22;33997;53.278;9.708;2023-04-23T02:08:04;11.80;96.90
48208;DHT22;33997;53.278;9.708;2023-04-23T02:10:30;11.70;96.80
48208;DHT22;33997;53.278;9.708;2023-04-23T02:12:57;11.60;96.50
48208;DHT22;33997;53.278;9.708;2023-04-23T02:15:23;11.50;96.60
48208;DHT22;33997;53.278;9.708;2023-04-23T02:17:49;11.40;96.10
48208;DHT22;33997;53.278;9.708;2023-04-23T02:20:18;11.40;95.80
48208;DHT22;33997;53.278;9.708;2023-04-23T02:22:44;11.40;96.00
48208;DHT22;33997;53.278;9.708;2023-04-23T02:25:11;11.30;95.90
48208;DHT22;33997;53.278;9.708;2023-04-23T02:27:36;11.30;96.10
48208;DHT22;33997;53.278;9.708;2023-04-23T02:30:02;11.40;96.20
48208;DHT22;33997;53.278;9.708;2023-04-23T02:32:28;11.30;96.20
48208;DHT22;33997;53.278;9.708;2023-04-23T02:34:54;11.20;96.40
48208;DHT22;33997;53.278;9.708;2023-04-23T02:37:20;11.20;96.60
48208;DHT22;33997;53.278;9.708;2023-04-23T02:39:45;11.10;96.40
48208;DHT22;33997;53.278;9.708;2023-04-23T02:42:11;11.10;96.40
48208;DHT22;33997;53.278;9.708;2023-04-23T02:44:37;11.10;96.50
48208;DHT22;33997;53.278;9.708;2023-04-23T02:47:03;11.10;96.30
48208;DHT22;33997;53.278;9.708;2023-04-23T02:49:28;11.00;96.30
48208;DHT22;33997;53.278;9.708;2023-04-23T02:51:54;10.90;95.90
48208;DHT22;33997;53.278;9.708;2023-04-23T02:54:19;10.80;95.80
48208;DHT22;33997;53.278;9.708;2023-04-23T02:56:45;10.90;96.10
48208;DHT22;33997;53.278;9.708;2023-04-23T02:59:10;10.80;95.80
48208;DHT22;33997;53.278;9.708;2023-04-23T03:01:36;10.80;95.80
48208;DHT22;33997;53.278;9.708;2023-04-23T03:04:02;10.70;95.60
48208;DHT22;33997;53.278;9.708;2023-04-23T03:06:28;10.70;95.80
48208;DHT22;33997;53.278;9.708;2023-04-23T03:08:54;10.80;96.00
48208;DHT22;33997;53.278;9.708;2023-04-23T03:11:21;10.70;95.80
48208;DHT22;33997;53.278;9.708;2023-04-23T03:13:47;10.70;96.00
48208;DHT22;33997;53.278;9.708;2023-04-23T03:16:13;10.60;95.80
48208;DHT22;33997;53.278;9.708;2023-04-23T03:18:38;10.70;96.00
48208;DHT22;33997;53.278;9.708;2023-04-23T03:21:04;10.60;95.60
48208;DHT22;33997;53.278;9.708;2023-04-23T03:23:30;10.50;95.40
48208;DHT22;33997;53.278;9.708;2023-04-23T03:25:55;10.40;95.40
48208;DHT22;33997;53.278;9.708;2023-04-23T03:28:21;10.30;95.10
48208;DHT22;33997;53.278;9.708;2023-04-23T03:30:46;10.30;95.10
48208;DHT22;33997;53.278;9.708;2023-04-23T03:33:12;10.30;95.30
48208;DHT22;33997;53.278;9.708;2023-04-23T03:35:37;10.30;95.40
48208;DHT22;33997;53.278;9.708;2023-04-23T03:38:03;10.30;95.30
48208;DHT22;33997;53.278;9.708;2023-04-23T03:40:28;10.30;95.60
48208;DHT22;33997;53.278;9.708;2023-04-23T03:42:54;10.30;95.60
48208;DHT22;33997;53.278;9.708;2023-04-23T03:45:19;10.30;95.70
48208;DHT22;33997;53.278;9.708;2023-04-23T03:47:45;10.20;95.70
48208;DHT22;33997;53.278;9.708;2023-04-23T03:50:11;10.30;96.00
48208;DHT22;33997;53.278;9.708;2023-04-23T03:52:39;10.10;95.40
48208;DHT22;33997;53.278;9.708;2023-04-23T03:55:05;10.10;94.90
48208;DHT22;33997;53.278;9.708;2023-04-23T03:57:32;10.10;94.90
48208;DHT22;33997;53.278;9.708;2023-04-23T03:59:57;10.10;94.80
48208;DHT22;33997;53.278;9.708;2023-04-23T04:02:22;10.10;94.80
48208;DHT22;33997;53.278;9.708;2023-04-23T04:04:48;10.00;94.70
48208;DHT22;33997;53.278;9.708;2023-04-23T04:07:16;10.00;94.90
48208;DHT22;33997;53.278;9.708;2023-04-23T04:09:41;10.00;94.80
48208;DHT22;33997;53.278;9.708;2023-04-23T04:12:07;9.90;94.90
48208;DHT22;33997;53.278;9.708;2023-04-23T04:14:32;9.90;95.20
48208;DHT22;33997;53.278;9.708;2023-04-23T04:16:58;9.80;95.30
48208;DHT22;33997;53.278;9.708;2023-04-23T04:19:23;9.90;95.40
48208;DHT22;33997;53.278;9.708;2023-04-23T04:21:49;9.90;95.30
48208;DHT22;33997;53.278;9.708;2023-04-23T04:24:18;9.80;95.00
48208;DHT22;33997;53.278;9.708;2023-04-23T04:26:44;9.80;95.20
48208;DHT22;33997;53.278;9.708;2023-04-23T04:29:10;9.80;95.30
48208;DHT22;33997;53.278;9.708;2023-04-23T04:31:36;9.80;95.50
48208;DHT22;33997;53.278;9.708;2023-04-23T04:34:01;9.80;95.40
48208;DHT22;33997;53.278;9.708;2023-04-23T04:36:27;9.80;95.40
48208;DHT22;33997;53.278;9.708;2023-04-23T04:38:54;9.70;95.40
48208;DHT22;33997;53.278;9.708;2023-04-23T04:41:21;9.70;95.30
48208;DHT22;33997;53.278;9.708;2023-04-23T04:43:47;9.60;95.50
48208;DHT22;33997;53.278;9.708;2023-04-23T04:46:13;9.70;95.60
48208;DHT22;33997;53.278;9.708;2023-04-23T04:48:39;9.80;95.70
48208;DHT22;33997;53.278;9.708;2023-04-23T04:51:05;9.80;95.60
48208;DHT22;33997;53.278;9.708;2023-04-23T04:53:30;9.80;95.30
48208;DHT22;33997;53.278;9.708;2023-04-23T04:55:56;9.70;95.00
48208;DHT22;33997;53.278;9.708;2023-04-23T04:58:21;9.70;95.00
48208;DHT22;33997;53.278;9.708;2023-04-23T05:00:47;9.60;94.70
48208;DHT22;33997;53.278;9.708;2023-04-23T05:03:16;9.60;94.50
48208;DHT22;33997;53.278;9.708;2023-04-23T05:05:43;9.60;94.70
48208;DHT22;33997;53.278;9.708;2023-04-23T05:08:09;9.60;94.00
48208;DHT22;33997;53.278;9.708;2023-04-23T05:10:35;9.50;93.30
48208;DHT22;33997;53.278;9.708;2023-04-23T05:13:00;9.50;93.40
48208;DHT22;33997;53.278;9.708;2023-04-23T05:15:26;9.50;93.30
48208;DHT22;33997;53.278;9.708;2023-04-23T05:17:52;9.50;92.80
48208;DHT22;33997;53.278;9.708;2023-04-23T05:20:19;9.60;92.70
48208;DHT22;33997;53.278;9.708;2023-04-23T05:22:45;9.50;92.20
48208;DHT22;33997;53.278;9.708;2023-04-23T05:25:10;9.60;92.50
48208;DHT22;33997;53.278;9.708;2023-04-23T05:27:37;9.60;92.40
48208;DHT22;33997;53.278;9.708;2023-04-23T05:30:04;9.60;92.20
48208;DHT22;33997;53.278;9.708;2023-04-23T05:32:30;9.60;92.60
48208;DHT22;33997;53.278;9.708;2023-04-23T05:34:56;9.60;92.20
48208;DHT22;33997;53.278;9.708;2023-04-23T05:37:22;9.50;92.20
48208;DHT22;33997;53.278;9.708;2023-04-23T05:39:47;9.50;92.10
48208;DHT22;33997;53.278;9.708;2023-04-23T05:42:13;9.50;91.30
48208;DHT22;33997;53.278;9.708;2023-04-23T05:44:38;9.50;91.50
48208;DHT22;33997;53.278;9.708;2023-04-23T05:47:06;9.60;91.40
48208;DHT22;33997;53.278;9.708;2023-04-23T05:49:31;9.70;91.30
48208;DHT22;33997;53.278;9.708;2023-04-23T05:51:57;9.80;91.20
48208;DHT22;33997;53.278;9.708;2023-04-23T05:54:23;9.90;91.20
48208;DHT22;33997;53.278;9.708;2023-04-23T05:56:49;9.80;90.60
48208;DHT22;33997;53.278;9.708;2023-04-23T05:59:14;10.00;91.10
48208;DHT22;33997;53.278;9.708;2023-04-23T06:01:40;9.90;90.10
48208;DHT22;33997;53.278;9.708;2023-04-23T06:04:06;9.80;89.60
48208;DHT22;33997;53.278;9.708;2023-04-23T06:06:32;9.90;90.00
48208;DHT22;33997;53.278;9.708;2023-04-23T06:08:57;9.90;90.40
48208;DHT22;33997;53.278;9.708;2023-04-23T06:11:23;10.00;90.30
48208;DHT22;33997;53.278;9.708;2023-04-23T06:13:48;10.00;90.40
48208;DHT22;33997;53.278;9.708;2023-04-23T06:16:14;10.00;90.10
48208;DHT22;33997;53.278;9.708;2023-04-23T06:18:39;10.10;89.20
48208;DHT22;33997;53.278;9.708;2023-04-23T06:21:05;10.10;88.90
48208;DHT22;33997;53.278;9.708;2023-04-23T06:23:31;10.10;89.70
48208;DHT22;33997;53.278;9.708;2023-04-23T06:25:56;10.10;89.20
48208;DHT22;33997;53.278;9.708;2023-04-23T06:28:22;10.20;89.10
48208;DHT22;33997;53.278;9.708;2023-04-23T06:30:48;10.30;89.10
48208;DHT22;33997;53.278;9.708;2023-04-23T06:33:13;10.30;89.00
48208;DHT22;33997;53.278;9.708;2023-04-23T06:35:39;10.30;88.40
48208;DHT22;33997;53.278;9.708;2023-04-23T06:38:04;10.20;87.40
48208;DHT22;33997;53.278;9.708;2023-04-23T06:40:31;10.10;87.80
48208;DHT22;33997;53.278;9.708;2023-04-23T06:42:56;10.20;87.80
48208;DHT22;33997;53.278;9.708;2023-04-23T06:45:22;10.30;87.20
48208;DHT22;33997;53.278;9.708;2023-04-23T06:47:48;10.20;86.60
48208;DHT22;33997;53.278;9.708;2023-04-23T06:50:14;10.30;87.10
48208;DHT22;33997;53.278;9.708;2023-04-23T06:52:39;10.40;87.50
48208;DHT22;33997;53.278;9.708;2023-04-23T06:55:05;10.40;87.10
48208;DHT22;33997;53.278;9.708;2023-04-23T06:57:31;10.50;87.70
48208;DHT22;33997;53.278;9.708;2023-04-23T06:59:57;10.30;86.80
48208;DHT22;33997;53.278;9.708;2023-04-23T07:02:23;10.40;87.30
48208;DHT22;33997;53.278;9.708;2023-04-23T07:04:48;10.50;87.10
48208;DHT22;33997;53.278;9.708;2023-04-23T07:07:13;10.60;87.10
48208;DHT22;33997;53.278;9.708;2023-04-23T07:09:39;10.60;88.20
48208;DHT22;33997;53.278;9.708;2023-04-23T07:12:04;10.60;87.50
48208;DHT22;33997;53.278;9.708;2023-04-23T07:14:31;10.60;87.70
48208;DHT22;33997;53.278;9.708;2023-04-23T07:16:56;10.80;87.50
48208;DHT22;33997;53.278;9.708;2023-04-23T07:19:23;10.70;87.70
48208;DHT22;33997;53.278;9.708;2023-04-23T07:21:48;11.00;87.70
48208;DHT22;33997;53.278;9.708;2023-04-23T07:24:14;11.00;87.10
48208;DHT22;33997;53.278;9.708;2023-04-23T07:26:39;11.00;86.80
48208;DHT22;33997;53.278;9.708;2023-04-23T07:29:05;11.10;87.00
48208;DHT22;33997;53.278;9.708;2023-04-23T07:31:32;11.20;87.20
48208;DHT22;33997;53.278;9.708;2023-04-23T07:33:57;11.30;86.30
48208;DHT22;33997;53.278;9.708;2023-04-23T07:36:23;11.60;86.40
48208;DHT22;33997;53.278;9.708;2023-04-23T07:38:49;11.60;86.00
48208;DHT22;33997;53.278;9.708;2023-04-23T07:41:15;11.60;86.00
48208;DHT22;33997;53.278;9.708;2023-04-23T07:43:41;11.40;85.90
48208;DHT22;33997;53.278;9.708;2023-04-23T07:46:07;11.70;85.50
48208;DHT22;33997;53.278;9.708;2023-04-23T07:48:32;11.70;85.30
48208;DHT22;33997;53.278;9.708;2023-04-23T07:51:00;11.70;85.20
48208;DHT22;33997;53.278;9.708;2023-04-23T07:53:26;11.80;85.10
48208;DHT22;33997;53.278;9.708;2023-04-23T07:55:56;11.90;84.60
48208;DHT22;33997;53.278;9.708;2023-04-23T07:58:23;12.00;84.30
48208;DHT22;33997;53.278;9.708;2023-04-23T08:00:48;12.10;84.60
48208;DHT22;33997;53.278;9.708;2023-04-23T08:03:14;12.10;84.80
48208;DHT22;33997;53.278;9.708;2023-04-23T08:05:40;12.00;83.60
48208;DHT22;33997;53.278;9.708;2023-04-23T08:08:06;12.00;84.50
48208;DHT22;33997;53.278;9.708;2023-04-23T08:10:33;12.20;83.60
48208;DHT22;33997;53.278;9.708;2023-04-23T08:12:58;12.30;83.10
48208;DHT22;33997;53.278;9.708;2023-04-23T08:15:24;12.30;83.20
48208;DHT22;33997;53.278;9.708;2023-04-23T08:17:49;12.50;82.70
48208;DHT22;33997;53.278;9.708;2023-04-23T08:20:15;12.60;82.80
48208;DHT22;33997;53.278;9.708;2023-04-23T08:22:40;12.70;81.80
48208;DHT22;33997;53.278;9.708;2023-04-23T08:25:06;13.00;80.90
48208;DHT22;33997;53.278;9.708;2023-04-23T08:27:32;13.60;81.00
48208;DHT22;33997;53.278;9.708;2023-04-23T08:29:57;14.00;79.30
48208;DHT22;33997;53.278;9.708;2023-04-23T08:32:23;13.60;77.70
48208;DHT22;33997;53.278;9.708;2023-04-23T08:34:48;13.70;78.10
48208;DHT22;33997;53.278;9.708;2023-04-23T08:37:14;14.10;77.70
48208;DHT22;33997;53.278;9.708;2023-04-23T08:39:39;14.80;77.50
48208;DHT22;33997;53.278;9.708;2023-04-23T08:42:33;14.50;74.30
48208;DHT22;33997;53.278;9.708;2023-04-23T08:45:02;14.80;72.50
48208;DHT22;33997;53.278;9.708;2023-04-23T08:47:29;14.10;71.70
48208;DHT22;33997;53.278;9.708;2023-04-23T08:49:57;13.80;73.30
48208;DHT22;33997;53.278;9.708;2023-04-23T08:52:25;13.90;74.90
48208;DHT22;33997;53.278;9.708;2023-04-23T08:54:58;14.40;76.00
48208;DHT22;33997;53.278;9.708;2023-04-23T08:57:24;14.20;75.10
48208;DHT22;33997;53.278;9.708;2023-04-23T08:59:51;14.10;74.00
48208;DHT22;33997;53.278;9.708;2023-04-23T09:02:16;14.60;73.80
48208;DHT22;33997;53.278;9.708;2023-04-23T09:04:44;15.10;73.20
48208;DHT22;33997;53.278;9.708;2023-04-23T09:07:09;14.60;72.30
48208;DHT22;33997;53.278;9.708;2023-04-23T09:09:38;14.40;71.80
48208;DHT22;33997;53.278;9.708;2023-04-23T09:12:05;14.20;72.30
48208;DHT22;33997;53.278;9.708;2023-04-23T09:14:31;14.30;72.10
48208;DHT22;33997;53.278;9.708;2023-04-23T09:16:57;14.80;74.00
48208;DHT22;33997;53.278;9.708;2023-04-23T09:19:24;15.30;72.60
48208;DHT22;33997;53.278;9.708;2023-04-23T09:21:52;15.60;70.40
48208;DHT22;33997;53.278;9.708;2023-04-23T09:24:17;15.60;67.90
48208;DHT22;33997;53.278;9.708;2023-04-23T09:26:48;15.60;68.80
48208;DHT22;33997;53.278;9.708;2023-04-23T09:29:18;15.40;66.50
48208;DHT22;33997;53.278;9.708;2023-04-23T09:31:45;15.40;67.50
48208;DHT22;33997;53.278;9.708;2023-04-23T09:34:17;15.20;66.80
48208;DHT22;33997;53.278;9.708;2023-04-23T09:36:44;15.00;65.70
48208;DHT22;33997;53.278;9.708;2023-04-23T09:39:14;15.00;66.70
48208;DHT22;33997;53.278;9.708;2023-04-23T09:41:40;15.30;68.10
48208;DHT22;33997;53.278;9.708;2023-04-23T09:44:06;15.40;65.60
48208;DHT22;33997;53.278;9.708;2023-04-23T09:46:37;15.50;63.50
48208;DHT22;33997;53.278;9.708;2023-04-23T09:49:04;15.50;64.70
48208;DHT22;33997;53.278;9.708;2023-04-23T09:51:34;16.00;66.10
48208;DHT22;33997;53.278;9.708;2023-04-23T09:54:01;16.10;64.40
48208;DHT22;33997;53.278;9.708;2023-04-23T09:56:29;16.20;62.40
48208;DHT22;33997;53.278;9.708;2023-04-23T09:58:55;16.50;64.90
48208;DHT22;33997;53.278;9.708;2023-04-23T10:01:27;16.40;61.70
48208;DHT22;33997;53.278;9.708;2023-04-23T10:03:54;16.70;61.70
48208;DHT22;33997;53.278;9.708;2023-04-23T10:06:27;16.50;60.70
48208;DHT22;33997;53.278;9.708;2023-04-23T10:08:55;16.20;60.90
48208;DHT22;33997;53.278;9.708;2023-04-23T10:11:23;16.50;62.70
48208;DHT22;33997;53.278;9.708;2023-04-23T10:13:50;16.20;60.30
48208;DHT22;33997;53.278;9.708;2023-04-23T10:16:17;16.50;60.80
48208;DHT22;33997;53.278;9.708;2023-04-23T10:18:45;16.80;62.30
48208;DHT22;33997;53.278;9.708;2023-04-23T10:21:13;16.70;60.20
48208;DHT22;33997;53.278;9.708;2023-04-23T10:23:41;17.00;58.90
48208;DHT22;33997;53.278;9.708;2023-04-23T10:26:08;16.80;58.90
48208;DHT22;33997;53.278;9.708;2023-04-23T10:28:35;17.20;57.60
48208;DHT22;33997;53.278;9.708;2023-04-23T10:31:02;17.30;56.60
48208;DHT22;33997;53.278;9.708;2023-04-23T10:33:30;17.40;57.10
48208;DHT22;33997;53.278;9.708;2023-04-23T10:35:56;17.90;57.90
48208;DHT22;33997;53.278;9.708;2023-04-23T10:38:22;17.90;55.10
48208;DHT22;33997;53.278;9.708;2023-04-23T10:40:49;17.60;55.70
48208;DHT22;33997;53.278;9.708;2023-04-23T10:43:17;17.80;55.00
48208;DHT22;33997;53.278;9.708;2023-04-23T10:45:43;17.80;55.40
48208;DHT22;33997;53.278;9.708;2023-04-23T10:48:08;18.00;54.80
48208;DHT22;33997;53.278;9.708;2023-04-23T10:50:35;18.20;54.70
48208;DHT22;33997;53.278;9.708;2023-04-23T10:53:01;18.50;56.90
48208;DHT22;33997;53.278;9.708;2023-04-23T10:55:30;18.70;55.60
48208;DHT22;33997;53.278;9.708;2023-04-23T10:58:00;18.70;54.70
48208;DHT22;33997;53.278;9.708;2023-04-23T11:00:27;18.90;53.30
48208;DHT22;33997;53.278;9.708;2023-04-23T11:02:53;18.90;50.50
48208;DHT22;33997;53.278;9.708;2023-04-23T11:05:21;18.70;50.10
48208;DHT22;33997;53.278;9.708;2023-04-23T11:08:04;18.90;52.00
48208;DHT22;33997;53.278;9.708;2023-04-23T11:10:31;19.40;51.60
48208;DHT22;33997;53.278;9.708;2023-04-23T11:13:27;19.00;53.00
48208;DHT22;33997;53.278;9.708;2023-04-23T11:16:21;19.30;51.30
48208;DHT22;33997;53.278;9.708;2023-04-23T11:19:07;19.40;50.00
48208;DHT22;33997;53.278;9.708;2023-04-23T11:24:30;19.60;50.80
48208;DHT22;33997;53.278;9.708;2023-04-23T11:26:56;19.60;49.00
48208;DHT22;33997;53.278;9.708;2023-04-23T11:29:22;19.50;51.40
48208;DHT22;33997;53.278;9.708;2023-04-23T11:31:49;19.60;49.50
48208;DHT22;33997;53.278;9.708;2023-04-23T11:34:16;20.20;49.30
48208;DHT22;33997;53.278;9.708;2023-04-23T11:36:42;19.50;48.70
48208;DHT22;33997;53.278;9.708;2023-04-23T11:39:07;19.70;49.20
48208;DHT22;33997;53.278;9.708;2023-04-23T11:41:35;20.40;50.40
48208;DHT22;33997;53.278;9.708;2023-04-23T11:44:00;20.70;49.00
48208;DHT22;33997;53.278;9.708;2023-04-23T11:46:26;20.80;48.10
48208;DHT22;33997;53.278;9.708;2023-04-23T11:48:51;20.30;47.90
48208;DHT22;33997;53.278;9.708;2023-04-23T11:51:18;20.30;47.70
48208;DHT22;33997;53.278;9.708;2023-04-23T11:53:47;20.50;47.20
48208;DHT22;33997;53.278;9.708;2023-04-23T11:56:16;20.80;45.90
48208;DHT22;33997;53.278;9.708;2023-04-23T11:58:41;20.80;47.60
48208;DHT22;33997;53.278;9.708;2023-04-23T12:01:09;20.70;47.70
48208;DHT22;33997;53.278;9.708;2023-04-23T12:03:36;20.40;47.70
48208;DHT22;33997;53.278;9.708;2023-04-23T12:06:02;21.30;47.10
48208;DHT22;33997;53.278;9.708;2023-04-23T12:08:32;21.80;46.80
48208;DHT22;33997;53.278;9.708;2023-04-23T12:11:01;21.80;45.40
48208;DHT22;33997;53.278;9.708;2023-04-23T12:13:28;21.10;44.90
48208;DHT22;33997;53.278;9.708;2023-04-23T12:16:02;21.40;44.80
48208;DHT22;33997;53.278;9.708;2023-04-23T12:18:32;21.80;45.80
48208;DHT22;33997;53.278;9.708;2023-04-23T12:21:11;21.80;45.60
48208;DHT22;33997;53.278;9.708;2023-04-23T12:23:38;20.70;47.00
48208;DHT22;33997;53.278;9.708;2023-04-23T12:26:12;20.00;47.60
48208;DHT22;33997;53.278;9.708;2023-04-23T12:28:46;20.00;48.80
48208;DHT22;33997;53.278;9.708;2023-04-23T12:31:18;21.40;47.20
48208;DHT22;33997;53.278;9.708;2023-04-23T12:33:44;21.60;46.00
48208;DHT22;33997;53.278;9.708;2023-04-23T12:36:10;22.70;45.40
48208;DHT22;33997;53.278;9.708;2023-04-23T12:38:36;21.80;45.00
48208;DHT22;33997;53.278;9.708;2023-04-23T12:41:03;22.00;44.50
48208;DHT22;33997;53.278;9.708;2023-04-23T12:43:29;21.10;44.70
48208;DHT22;33997;53.278;9.708;2023-04-23T12:45:55;21.00;46.50
48208;DHT22;33997;53.278;9.708;2023-04-23T12:48:20;20.00;47.50
48208;DHT22;33997;53.278;9.708;2023-04-23T12:50:46;19.80;49.40
48208;DHT22;33997;53.278;9.708;2023-04-23T12:53:12;19.60;51.40
48208;DHT22;33997;53.278;9.708;2023-04-23T12:55:38;19.10;50.80
48208;DHT22;33997;53.278;9.708;2023-04-23T12:58:04;19.20;49.50
48208;DHT22;33997;53.278;9.708;2023-04-23T13:00:30;19.60;49.30
48208;DHT22;33997;53.278;9.708;2023-04-23T13:02:55;20.90;47.60
48208;DHT22;33997;53.278;9.708;2023-04-23T13:05:21;20.70;47.60
48208;DHT22;33997;53.278;9.708;2023-04-23T13:07:47;20.40;49.10
48208;DHT22;33997;53.278;9.708;2023-04-23T13:10:12;19.70;49.50
48208;DHT22;33997;53.278;9.708;2023-04-23T13:12:38;19.40;50.20
48208;DHT22;33997;53.278;9.708;2023-04-23T13:15:04;19.90;51.00
48208;DHT22;33997;53.278;9.708;2023-04-23T13:17:30;20.80;47.20
48208;DHT22;33997;53.278;9.708;2023-04-23T13:19:56;20.70;48.80
48208;DHT22;33997;53.278;9.708;2023-04-23T13:22:22;20.40;45.90
48208;DHT22;33997;53.278;9.708;2023-04-23T13:24:52;19.90;48.40
48208;DHT22;33997;53.278;9.708;2023-04-23T13:27:18;19.50;48.20
48208;DHT22;33997;53.278;9.708;2023-04-23T13:29:43;19.40;49.20
48208;DHT22;33997;53.278;9.708;2023-04-23T13:32:09;18.80;49.90
48208;DHT22;33997;53.278;9.708;2023-04-23T13:34:34;18.50;50.50
48208;DHT22;33997;53.278;9.708;2023-04-23T13:37:01;18.20;56.80
48208;DHT22;33997;53.278;9.708;2023-04-23T13:39:30;17.40;67.60
48208;DHT22;33997;53.278;9.708;2023-04-23T13:41:56;16.10;70.80
48208;DHT22;33997;53.278;9.708;2023-04-23T13:44:21;14.20;78.30
48208;DHT22;33997;53.278;9.708;2023-04-23T13:46:47;14.20;82.80
48208;DHT22;33997;53.278;9.708;2023-04-23T13:49:13;14.50;79.30
48208;DHT22;33997;53.278;9.708;2023-04-23T13:51:38;14.80;82.50
48208;DHT22;33997;53.278;9.708;2023-04-23T13:54:04;15.60;83.10
48208;DHT22;33997;53.278;9.708;2023-04-23T13:56:31;17.10;80.70
48208;DHT22;33997;53.278;9.708;2023-04-23T13:58:56;18.40;74.50
48208;DHT22;33997;53.278;9.708;2023-04-23T14:01:27;18.60;68.70
48208;DHT22;33997;53.278;9.708;2023-04-23T14:03:53;18.90;70.20
48208;DHT22;33997;53.278;9.708;2023-04-23T14:06:18;18.70;68.90
48208;DHT22;33997;53.278;9.708;2023-04-23T14:08:43;17.60;67.20
48208;DHT22;33997;53.278;9.708;2023-04-23T14:11:09;17.50;68.40
48208;DHT22;33997;53.278;9.708;2023-04-23T14:13:35;17.80;65.70
48208;DHT22;33997;53.278;9.708;2023-04-23T14:16:01;17.90;64.70
48208;DHT22;33997;53.278;9.708;2023-04-23T14:18:26;18.10;64.30
48208;DHT22;33997;53.278;9.708;2023-04-23T14:20:52;18.30;64.20
48208;DHT22;33997;53.278;9.708;2023-04-23T14:25:47;18.70;60.70
48208;DHT22;33997;53.278;9.708;2023-04-23T14:28:40;19.10;61.70
48208;DHT22;33997;53.278;9.708;2023-04-23T14:31:08;19.40;58.90
48208;DHT22;33997;53.278;9.708;2023-04-23T14:33:34;19.70;57.20
48208;DHT22;33997;53.278;9.708;2023-04-23T14:36:00;19.90;55.20
48208;DHT22;33997;53.278;9.708;2023-04-23T14:38:25;20.20;54.20
48208;DHT22;33997;53.278;9.708;2023-04-23T14:40:51;20.30;54.80
48208;DHT22;33997;53.278;9.708;2023-04-23T14:43:17;20.80;52.60
48208;DHT22;33997;53.278;9.708;2023-04-23T14:45:43;22.00;52.60
48208;DHT22;33997;53.278;9.708;2023-04-23T14:48:09;21.80;49.60
48208;DHT22;33997;53.278;9.708;2023-04-23T14:50:34;21.10;48.90
48208;DHT22;33997;53.278;9.708;2023-04-23T14:53:00;20.30;53.30
48208;DHT22;33997;53.278;9.708;2023-04-23T14:55:28;20.20;54.50
48208;DHT22;33997;53.278;9.708;2023-04-23T14:57:54;20.00;53.90
48208;DHT22;33997;53.278;9.708;2023-04-23T15:00:19;19.60;54.20
48208;DHT22;33997;53.278;9.708;2023-04-23T15:02:46;19.00;52.50
48208;DHT22;33997;53.278;9.708;2023-04-23T15:05:12;18.60;56.40
48208;DHT22;33997;53.278;9.708;2023-04-23T15:07:39;18.20;54.30
48208;DHT22;33997;53.278;9.708;2023-04-23T15:10:06;18.10;60.90
48208;DHT22;33997;53.278;9.708;2023-04-23T15:15:03;17.60;67.80
48208;DHT22;33997;53.278;9.708;2023-04-23T15:17:29;17.50;66.30
48208;DHT22;33997;53.278;9.708;2023-04-23T15:19:54;17.20;70.20
48208;DHT22;33997;53.278;9.708;2023-04-23T15:22:21;16.80;73.90
48208;DHT22;33997;53.278;9.708;2023-04-23T15:24:46;16.50;75.50
48208;DHT22;33997;53.278;9.708;2023-04-23T15:27:12;16.00;78.90
48208;DHT22;33997;53.278;9.708;2023-04-23T15:29:39;15.70;81.50
48208;DHT22;33997;53.278;9.708;2023-04-23T15:32:05;14.80;82.00
48208;DHT22;33997;53.278;9.708;2023-04-23T15:34:31;14.20;84.20
48208;DHT22;33997;53.278;9.708;2023-04-23T15:36:56;14.10;85.60